Balhash, Kazakhstan
Current Conditions -  °F | °C
As of 4:00 AM on Tuesday 23 Dec 2014 (Local Time) from UAKK Reporting Station
Clear Clear  
Wind Chill: -2°   Ceiling: Unl
Heat Index:   Visibility: 6mi
Dew Point:   Wind: 4mph
Humidity: 85%   Direction: 80°E
Pressure: 30.12"   Gusts: NA
Location:  46.8°N, 75.08°E
Report Text: UAKK 222200Z 08002MPS CAVOK M14/M16 Q1020 R05/410560 NOSIG RMKQFE718/0957
Loading
Personal Weather Stations






























Interactive Weather Map New forecast layout! Learn more

10-Day Weather Forecast

Advertisements
Track Severe Weather on mobile